createdAt,value
2022-10-17T00:00:12.409Z,100982.06
2022-10-17T00:02:42.252Z,100981.20
2022-10-17T00:05:12.195Z,100983.09
2022-10-17T00:07:41.994Z,100984.51
2022-10-17T00:10:11.556Z,100987.73
2022-10-17T00:12:41.730Z,100991.98
2022-10-17T00:15:14.616Z,100985.44
2022-10-17T00:17:44.417Z,100987.70
2022-10-17T00:20:14.870Z,100999.33
2022-10-17T00:22:44.701Z,101004.92
2022-10-17T00:25:14.748Z,101010.30
2022-10-17T00:27:44.609Z,101014.44
2022-10-17T00:30:17.737Z,101007.73
2022-10-17T00:32:47.900Z,101012.64
2022-10-17T00:35:17.540Z,101012.64
2022-10-17T00:37:47.692Z,101015.29
2022-10-17T00:40:17.361Z,101011.03
2022-10-17T00:42:50.272Z,101008.95
2022-10-17T00:45:23.631Z,101014.62
2022-10-17T00:48:03.587Z,101012.82
2022-10-17T00:50:35.307Z,101016.03
2022-10-17T00:53:08.888Z,101020.22
2022-10-17T00:55:41.797Z,101020.22
2022-10-17T00:58:11.803Z,101018.97
2022-10-17T01:00:43.935Z,101018.30
2022-10-17T01:03:13.594Z,101012.92
2022-10-17T01:05:44.516Z,101012.05
2022-10-17T01:08:14.966Z,101015.34
2022-10-17T01:10:50.428Z,101012.11
2022-10-17T01:13:26.076Z,101012.67
2022-10-17T01:16:13.879Z,101007.59
2022-10-17T01:19:03.276Z,101013.06
2022-10-17T01:22:02.287Z,101014.55
2022-10-17T01:24:54.902Z,101008.42
2022-10-17T01:27:33.718Z,101017.38
2022-10-17T01:30:43.260Z,101018.11
2022-10-17T01:33:16.395Z,101023.69
2022-10-17T01:35:53.635Z,101023.39
2022-10-17T01:38:52.355Z,101018.11
2022-10-17T01:41:31.586Z,101011.30
2022-10-17T01:44:04.877Z,101017.34
2022-10-17T01:46:40.032Z,101012.19
2022-10-17T01:49:14.051Z,101003.33
2022-10-17T01:51:46.973Z,100996.77
2022-10-17T01:54:43.555Z,101006.56
2022-10-17T01:57:16.524Z,101006.56
2022-10-17T01:59:49.687Z,100996.17
2022-10-17T02:02:21.876Z,100993.17
2022-10-17T02:04:53.366Z,100993.23
2022-10-17T02:07:22.921Z,100989.87
2022-10-17T02:09:52.782Z,100988.64
2022-10-17T02:12:31.602Z,100992.65
2022-10-17T02:15:19.967Z,100992.65
2022-10-17T02:18:11.802Z,101005.27
2022-10-17T02:20:56.777Z,101013.29
2022-10-17T02:23:41.300Z,101016.11
2022-10-17T02:26:13.845Z,101016.81
2022-10-17T02:28:46.825Z,101025.36
2022-10-17T02:31:25.409Z,101025.36
2022-10-17T02:34:01.707Z,101024.72
2022-10-17T02:36:37.226Z,101030.55
2022-10-17T02:39:09.504Z,101027.31
2022-10-17T02:41:41.315Z,101024.45
2022-10-17T02:44:12.365Z,101018.23
2022-10-17T02:46:45.123Z,101030.55
2022-10-17T02:49:20.494Z,101038.17
2022-10-17T02:52:05.454Z,101040.81
2022-10-17T02:54:43.678Z,101034.13
2022-10-17T02:57:35.044Z,101039.24
2022-10-17T03:00:09.413Z,101039.75
2022-10-17T03:02:51.186Z,101047.08
2022-10-17T03:05:23.758Z,101047.70
2022-10-17T03:07:54.490Z,101048.55
2022-10-17T03:10:24.739Z,101038.37
2022-10-17T03:12:54.418Z,101037.13
2022-10-17T03:15:23.972Z,101044.03
2022-10-17T03:17:53.762Z,101038.64
2022-10-17T03:20:24.720Z,101041.33
2022-10-17T03:22:54.617Z,101040.09
2022-10-17T03:25:24.808Z,101048.84
2022-10-17T03:27:54.958Z,101053.05
2022-10-17T03:30:24.904Z,101050.20
2022-10-17T03:32:55.831Z,101056.19
2022-10-17T03:35:26.551Z,101049.53
2022-10-17T03:37:57.280Z,101049.53
2022-10-17T03:40:27.837Z,101056.80
2022-10-17T03:42:57.686Z,101058.44
2022-10-17T03:45:27.776Z,101059.84
2022-10-17T03:48:00.513Z,101061.24
2022-10-17T03:50:30.301Z,101061.24
2022-10-17T03:53:00.267Z,101074.05
2022-10-17T03:55:31.246Z,101076.85
2022-10-17T03:58:01.042Z,101072.81
2022-10-17T04:00:31.010Z,101067.34
2022-10-17T04:03:00.827Z,101069.69
2022-10-17T04:05:30.678Z,101070.31
2022-10-17T04:08:03.908Z,101067.78
2022-10-17T04:10:33.885Z,101067.78
2022-10-17T04:13:03.784Z,101068.41
2022-10-17T04:15:33.623Z,101072.20
2022-10-17T04:20:38.270Z,101073.61
2022-10-17T04:23:07.770Z,101074.80
2022-10-17T04:25:38.578Z,101068.11
2022-10-17T04:28:08.694Z,101072.69
2022-10-17T04:30:41.206Z,101078.43
2022-10-17T04:33:10.871Z,101081.23
2022-10-17T04:35:40.713Z,101083.02
2022-10-17T04:38:10.472Z,101078.00
2022-10-17T04:40:40.273Z,101074.98
2022-10-17T04:43:10.725Z,101079.40
2022-10-17T04:45:41.100Z,101081.65
2022-10-17T04:48:10.579Z,101083.02
2022-10-17T04:50:40.437Z,101075.64
2022-10-17T04:53:12.049Z,101084.83
2022-10-17T04:55:41.844Z,101087.47
2022-10-17T04:58:11.632Z,101082.04
2022-10-17T05:00:41.798Z,101085.69
2022-10-17T05:03:16.509Z,101093.28
2022-10-17T05:05:46.489Z,101087.78
2022-10-17T05:08:16.463Z,101086.38
2022-10-17T05:10:47.218Z,101091.42
2022-10-17T05:13:17.962Z,101085.17
2022-10-17T05:15:47.747Z,101091.69
2022-10-17T05:18:17.990Z,101094.68
2022-10-17T05:20:47.955Z,101097.55
2022-10-17T05:23:17.785Z,101092.38
2022-10-17T05:25:47.597Z,101098.51
2022-10-17T05:28:17.679Z,101094.47
2022-10-17T05:30:48.593Z,101101.30
2022-10-17T05:33:18.722Z,101102.16
2022-10-17T05:35:48.527Z,101111.30
2022-10-17T05:38:18.486Z,101108.74
2022-10-17T05:40:49.451Z,101117.25
2022-10-17T05:43:19.179Z,101121.59
2022-10-17T05:45:49.289Z,101126.95
2022-10-17T05:48:21.202Z,101128.58
2022-10-17T05:50:51.274Z,101135.33
2022-10-17T05:53:22.838Z,101134.60
2022-10-17T05:56:01.110Z,101137.40
2022-10-17T05:58:51.817Z,101141.59
2022-10-17T06:01:10.714Z,101144.26
2022-10-17T06:03:39.967Z,101145.47
2022-10-17T06:06:12.948Z,101133.20
2022-10-17T06:08:45.560Z,101137.80
2022-10-17T06:11:17.084Z,101137.88
2022-10-17T06:13:47.967Z,101143.92
2022-10-17T06:16:19.387Z,101150.44
2022-10-17T06:21:22.575Z,101151.55
2022-10-17T06:23:54.343Z,101151.06
2022-10-17T06:26:28.784Z,101149.71
2022-10-17T06:28:58.767Z,101145.61
2022-10-17T06:31:30.529Z,101146.44
2022-10-17T06:34:00.614Z,101155.11
2022-10-17T06:36:31.351Z,101155.11
2022-10-17T06:39:01.372Z,101158.75
2022-10-17T06:41:32.889Z,101156.48
2022-10-17T06:44:06.108Z,101155.32
2022-10-17T06:46:41.185Z,101152.45
2022-10-17T06:49:12.103Z,101160.54
2022-10-17T06:51:56.594Z,101162.82
2022-10-17T06:54:28.203Z,101163.48
2022-10-17T06:57:11.877Z,101167.23
2022-10-17T06:59:55.484Z,101158.78
2022-10-17T07:02:27.299Z,101157.16
2022-10-17T07:04:59.339Z,101166.90
2022-10-17T07:07:32.591Z,101162.36
2022-10-17T07:10:03.856Z,101169.84
2022-10-17T07:12:35.179Z,101165.34
2022-10-17T07:15:05.979Z,101171.47
2022-10-17T07:17:36.371Z,101161.30
2022-10-17T07:20:07.304Z,101169.03
2022-10-17T07:22:39.192Z,101176.13
2022-10-17T07:25:10.252Z,101170.03
2022-10-17T07:27:41.852Z,101175.18
2022-10-17T07:30:12.704Z,101175.18
2022-10-17T07:32:44.744Z,101178.87
2022-10-17T07:35:15.689Z,101176.36
2022-10-17T07:37:45.506Z,101188.81
2022-10-17T07:40:16.626Z,101188.81
2022-10-17T07:42:46.725Z,101182.34
2022-10-17T07:45:16.520Z,101186.44
2022-10-17T07:47:46.593Z,101187.09
2022-10-17T07:50:17.910Z,101186.09
2022-10-17T07:52:47.690Z,101185.86
2022-10-17T07:55:17.360Z,101185.48
2022-10-17T07:57:47.613Z,101183.78
2022-10-17T08:00:17.462Z,101181.70
2022-10-17T08:02:47.249Z,101174.42
2022-10-17T08:05:17.058Z,101176.37
2022-10-17T08:07:47.012Z,101168.59
2022-10-17T08:10:17.702Z,101175.08
2022-10-17T08:12:47.394Z,101172.23
2022-10-17T08:15:16.992Z,101169.82
2022-10-17T08:17:47.138Z,101174.57
2022-10-17T08:20:17.227Z,101179.77
2022-10-17T08:22:54.244Z,101175.98
2022-10-17T08:25:24.995Z,101171.59
2022-10-17T08:27:54.980Z,101180.70
2022-10-17T08:30:24.745Z,101178.25
2022-10-17T08:32:56.105Z,101160.17
2022-10-17T08:35:25.637Z,101160.17
2022-10-17T08:37:55.467Z,101181.91
2022-10-17T08:40:28.948Z,101176.06
2022-10-17T08:43:16.733Z,101179.05
2022-10-17T08:46:00.342Z,101173.48
2022-10-17T08:48:34.959Z,101171.45
2022-10-17T08:51:11.892Z,101167.41
2022-10-17T08:53:47.680Z,101165.87
2022-10-17T08:56:44.013Z,101170.09
2022-10-17T08:58:58.846Z,101161.40
2022-10-17T09:01:40.381Z,101164.23
2022-10-17T09:04:10.737Z,101161.14
2022-10-17T09:06:58.325Z,101160.66
2022-10-17T09:09:48.453Z,101156.92
2022-10-17T09:12:27.003Z,101164.39
2022-10-17T09:15:05.889Z,101158.34
2022-10-17T09:17:48.626Z,101158.12
2022-10-17T09:20:27.370Z,101164.27
2022-10-17T09:23:00.193Z,101163.42
2022-10-17T09:25:31.930Z,101161.91
2022-10-17T09:28:19.866Z,101154.00
2022-10-17T09:30:55.214Z,101148.94
2022-10-17T09:33:53.915Z,101151.58
2022-10-17T09:36:19.725Z,101151.70
2022-10-17T09:38:55.827Z,101150.40
2022-10-17T09:41:46.617Z,101146.25
2022-10-17T09:44:21.982Z,101141.23
2022-10-17T09:47:03.577Z,101145.08
2022-10-17T09:49:36.575Z,101142.80
2022-10-17T09:52:09.712Z,101147.83
2022-10-17T09:54:49.063Z,101140.95
2022-10-17T09:57:21.080Z,101126.70
2022-10-17T10:00:06.341Z,101126.70
2022-10-17T10:02:39.584Z,101137.58
2022-10-17T10:05:21.668Z,101133.20
2022-10-17T10:08:16.298Z,101139.00
2022-10-17T10:10:46.765Z,101146.28
2022-10-17T10:13:20.615Z,101144.12
2022-10-17T10:15:51.758Z,101148.01
2022-10-17T10:18:33.513Z,101139.24
2022-10-17T10:21:17.828Z,101125.13
2022-10-17T10:24:09.245Z,101125.13
2022-10-17T10:26:50.806Z,101129.72
2022-10-17T10:29:32.530Z,101129.72
2022-10-17T10:32:26.753Z,101144.94
2022-10-17T10:35:11.207Z,101142.65
2022-10-17T10:37:47.513Z,101138.24
2022-10-17T10:40:25.871Z,101133.84
2022-10-17T10:43:04.003Z,101140.09
2022-10-17T10:45:49.122Z,101130.05
2022-10-17T10:48:27.249Z,101128.25
2022-10-17T10:51:00.107Z,101124.77
2022-10-17T10:53:41.925Z,101118.94
2022-10-17T10:56:17.695Z,101119.96
2022-10-17T10:59:11.140Z,101117.65
2022-10-17T11:01:52.935Z,101122.99
2022-10-17T11:04:31.130Z,101117.73
2022-10-17T11:07:03.963Z,101121.90
2022-10-17T11:09:49.261Z,101128.23
2022-10-17T11:12:27.910Z,101119.41
2022-10-17T11:15:20.734Z,101096.00
2022-10-17T11:17:54.048Z,101096.00
2022-10-17T11:20:42.654Z,101109.09
2022-10-17T11:23:19.861Z,101106.28
2022-10-17T11:25:54.791Z,101107.48
2022-10-17T11:28:26.767Z,101108.30
2022-10-17T11:31:08.484Z,101102.73
2022-10-17T11:33:53.266Z,101101.55
2022-10-17T11:36:28.625Z,101104.70
2022-10-17T11:39:01.897Z,101097.13
2022-10-17T11:41:55.601Z,101094.94
2022-10-17T11:44:37.172Z,101091.95
2022-10-17T11:47:25.069Z,101088.09
2022-10-17T11:49:58.522Z,101080.89
2022-10-17T11:52:56.990Z,101083.28
2022-10-17T11:55:20.878Z,101079.85
2022-10-17T11:58:15.075Z,101078.59
2022-10-17T12:01:10.411Z,101062.02
2022-10-17T12:04:15.078Z,101062.02
2022-10-17T12:07:07.323Z,101080.31
2022-10-17T12:09:46.094Z,101076.69
2022-10-17T12:12:27.713Z,101072.30
2022-10-17T12:15:24.672Z,101071.37
2022-10-17T12:18:05.250Z,101066.93
2022-10-17T12:20:39.570Z,101066.84
2022-10-17T12:23:15.067Z,101069.81
2022-10-17T12:26:01.127Z,101074.02
2022-10-17T12:28:34.818Z,101071.71
2022-10-17T12:31:12.999Z,101071.16
2022-10-17T12:33:51.629Z,101069.80
2022-10-17T12:36:29.872Z,101066.98
2022-10-17T12:39:10.144Z,101061.20
2022-10-17T12:41:44.351Z,101062.38
2022-10-17T12:44:23.040Z,101067.29
2022-10-17T12:47:09.646Z,101063.42
2022-10-17T12:49:42.734Z,101054.09
2022-10-17T12:52:36.725Z,101061.66
2022-10-17T12:55:12.969Z,101062.71
2022-10-17T12:57:46.002Z,101058.98
2022-10-17T13:00:30.690Z,101062.25
2022-10-17T13:03:03.530Z,101061.89
2022-10-17T13:05:36.035Z,101060.33
2022-10-17T13:08:10.040Z,101037.61
2022-10-17T13:10:43.237Z,101037.61
2022-10-17T13:13:20.833Z,101053.30
2022-10-17T13:15:52.881Z,101061.14
2022-10-17T13:18:25.506Z,101060.41
2022-10-17T13:21:07.167Z,101051.21
2022-10-17T13:23:38.705Z,101056.34
2022-10-17T13:26:22.987Z,101057.75
2022-10-17T13:29:05.196Z,101052.91
2022-10-17T13:31:38.171Z,101028.44
2022-10-17T13:34:19.414Z,101028.44
2022-10-17T13:36:57.324Z,101047.06
2022-10-17T13:39:44.916Z,101040.56
2022-10-17T13:42:02.884Z,101041.21
2022-10-17T13:44:39.392Z,101042.77
2022-10-17T13:47:10.060Z,101045.83
2022-10-17T13:49:43.060Z,101051.96
2022-10-17T13:52:18.422Z,101045.46
2022-10-17T13:54:55.207Z,101047.32
2022-10-17T13:57:30.826Z,101049.88
2022-10-17T14:00:11.422Z,101048.35
2022-10-17T14:02:42.893Z,101041.98
2022-10-17T14:05:19.687Z,101043.52
2022-10-17T14:08:22.829Z,101041.61
2022-10-17T14:10:36.989Z,101037.53
2022-10-17T14:13:09.590Z,101029.33
2022-10-17T14:15:41.062Z,101031.93
2022-10-17T14:18:13.915Z,101032.16
2022-10-17T14:21:29.120Z,101035.98
2022-10-17T14:23:36.776Z,101035.17
2022-10-17T14:26:10.179Z,101041.64
2022-10-17T14:28:41.764Z,101041.81
2022-10-17T14:31:26.023Z,101035.81
2022-10-17T14:33:56.460Z,101034.64
2022-10-17T14:36:41.792Z,101007.20
2022-10-17T14:39:14.687Z,101007.20
2022-10-17T14:41:46.737Z,101037.67
2022-10-17T14:44:24.758Z,101031.53
2022-10-17T14:46:57.747Z,101026.65
2022-10-17T14:49:36.475Z,101026.65
2022-10-17T14:52:19.248Z,101045.29
2022-10-17T14:54:50.587Z,101021.25
2022-10-17T14:57:20.850Z,101021.25
2022-10-17T14:59:54.305Z,101034.42
2022-10-17T15:02:22.577Z,101031.45
2022-10-17T15:04:52.932Z,101032.25
2022-10-17T15:07:24.163Z,101034.48
2022-10-17T15:09:54.816Z,101033.13
2022-10-17T15:12:26.810Z,101037.19
2022-10-17T15:14:56.729Z,101033.31
2022-10-17T15:17:29.817Z,101030.45
2022-10-17T15:20:00.345Z,101034.83
2022-10-17T15:22:31.731Z,101033.13
2022-10-17T15:25:01.831Z,101033.80
2022-10-17T15:27:32.836Z,101028.01
2022-10-17T15:30:02.954Z,101024.98
2022-10-17T15:32:33.020Z,101024.57
2022-10-17T15:35:02.785Z,101025.03
2022-10-17T15:37:34.830Z,101025.48
2022-10-17T15:40:06.075Z,101022.98
2022-10-17T15:42:35.875Z,101020.84
2022-10-17T15:47:39.318Z,101029.06
2022-10-17T15:50:11.142Z,101029.16
2022-10-17T15:52:41.490Z,101024.67
2022-10-17T15:55:12.109Z,101028.45
2022-10-17T15:57:47.043Z,101027.88
2022-10-17T16:00:22.922Z,101030.14
2022-10-17T16:02:53.011Z,101030.30
2022-10-17T16:05:29.324Z,101029.36
2022-10-17T16:07:59.153Z,101031.36
2022-10-17T16:10:29.133Z,101037.73
2022-10-17T16:12:58.955Z,101040.54
2022-10-17T16:15:29.559Z,101023.81
2022-10-17T16:18:01.768Z,101023.81
2022-10-17T16:20:32.059Z,101043.19
2022-10-17T16:23:04.155Z,101046.28
2022-10-17T16:25:34.220Z,101042.41
2022-10-17T16:28:04.444Z,101044.16
2022-10-17T16:30:36.115Z,101045.84
2022-10-17T16:33:06.604Z,101042.11
2022-10-17T16:35:37.647Z,101051.95
2022-10-17T16:38:08.538Z,101045.42
2022-10-17T16:40:40.226Z,101044.25
2022-10-17T16:43:14.406Z,101040.70
2022-10-17T16:45:44.215Z,101042.69
2022-10-17T16:48:13.810Z,101042.83
2022-10-17T16:50:43.583Z,101042.81
2022-10-17T16:53:13.393Z,101045.48
2022-10-17T16:55:43.731Z,101046.91
2022-10-17T16:58:13.239Z,101050.41
2022-10-17T17:00:44.058Z,101045.97
2022-10-17T17:03:12.841Z,101026.04
2022-10-17T17:05:42.249Z,101047.25
2022-10-17T17:08:12.686Z,101052.66
2022-10-17T17:10:47.556Z,101033.69
2022-10-17T17:13:18.354Z,101033.69
2022-10-17T17:15:51.046Z,101048.09
2022-10-17T17:18:22.371Z,101045.48
2022-10-17T17:20:51.882Z,101042.44
2022-10-17T17:23:21.369Z,101047.37
2022-10-17T17:25:52.682Z,101047.23
2022-10-17T17:28:22.575Z,101046.82
2022-10-17T17:30:52.854Z,101045.46
2022-10-17T17:33:23.961Z,101051.66
2022-10-17T17:35:59.933Z,101050.77
2022-10-17T17:38:32.189Z,101052.16
2022-10-17T17:41:02.434Z,101059.14
2022-10-17T17:43:32.527Z,101062.39
2022-10-17T17:46:03.945Z,101061.75
2022-10-17T17:48:33.797Z,101064.34
2022-10-17T17:51:08.550Z,101047.77
2022-10-17T17:53:40.181Z,101047.77
2022-10-17T17:56:14.221Z,101062.12
2022-10-17T17:58:48.671Z,101062.12
2022-10-17T18:01:22.385Z,101064.18
2022-10-17T18:03:54.230Z,101061.81
2022-10-17T18:06:24.253Z,101065.39
2022-10-17T18:08:57.312Z,101067.58
2022-10-17T18:11:28.227Z,101056.00
2022-10-17T18:13:58.202Z,101066.26
2022-10-17T18:16:30.053Z,101071.01
2022-10-17T18:19:04.145Z,101071.24
2022-10-17T18:21:32.835Z,101079.95
2022-10-17T18:24:04.807Z,101076.56
2022-10-17T18:26:36.662Z,101073.78
2022-10-17T18:29:06.658Z,101077.37
2022-10-17T18:31:36.514Z,101077.91
2022-10-17T18:34:07.407Z,101080.34
2022-10-17T18:36:37.826Z,101081.34
2022-10-17T18:39:07.486Z,101086.20
2022-10-17T18:41:37.373Z,101083.64
2022-10-17T18:44:08.341Z,101078.39
2022-10-17T18:46:39.793Z,101082.98
2022-10-17T18:49:19.699Z,101087.34
2022-10-17T18:51:56.824Z,101087.83
2022-10-17T18:54:32.588Z,101093.67
2022-10-17T18:57:02.865Z,101087.87
2022-10-17T18:59:41.723Z,101085.98
2022-10-17T19:02:15.386Z,101088.84
2022-10-17T19:04:54.907Z,101086.25
2022-10-17T19:07:25.622Z,101086.95
2022-10-17T19:10:15.325Z,101086.17
2022-10-17T19:12:45.042Z,101095.99
2022-10-17T19:15:15.498Z,101091.63
2022-10-17T19:17:45.304Z,101095.48
2022-10-17T19:20:22.018Z,101095.59
2022-10-17T19:25:26.295Z,101095.86
2022-10-17T19:27:59.691Z,101097.77
2022-10-17T19:30:31.807Z,101094.94
2022-10-17T19:33:10.559Z,101094.94
2022-10-17T19:36:10.183Z,101102.32
2022-10-17T19:38:49.855Z,101099.66
2022-10-17T19:41:23.354Z,101089.23
2022-10-17T19:43:58.152Z,101073.61
2022-10-17T19:56:03.865Z,101089.77
2022-10-17T19:56:42.940Z,101059.55
2022-10-17T19:58:37.354Z,101089.55
2022-10-17T20:01:08.576Z,101089.55
2022-10-17T20:03:40.010Z,101096.52
2022-10-17T20:06:09.412Z,101094.75
2022-10-17T20:08:40.217Z,101087.06
2022-10-17T20:11:15.988Z,101092.83
2022-10-17T20:13:50.039Z,101086.80
2022-10-17T20:16:23.787Z,101088.98
2022-10-17T20:18:57.842Z,101092.38
2022-10-17T20:21:35.223Z,101095.37
2022-10-17T20:24:08.430Z,101094.84
2022-10-17T20:26:39.905Z,101101.47
2022-10-17T20:29:18.545Z,101100.33
2022-10-17T20:31:51.022Z,101103.66
2022-10-17T20:34:20.814Z,101117.30
2022-10-17T20:36:52.669Z,101117.30
2022-10-17T20:39:22.589Z,101115.91
2022-10-17T20:41:52.797Z,101112.59
2022-10-17T20:44:30.183Z,101107.02
2022-10-17T20:47:02.699Z,101116.10
2022-10-17T20:49:32.993Z,101106.97
2022-10-17T20:52:03.711Z,101101.59
2022-10-17T21:04:44.018Z,101116.01
2022-10-17T21:06:41.041Z,101110.40
2022-10-17T21:09:10.654Z,101102.02
2022-10-17T21:11:43.202Z,101106.70
2022-10-17T21:14:15.301Z,101105.24
2022-10-17T21:16:45.182Z,101108.32
2022-10-17T21:19:15.970Z,101106.62
2022-10-17T21:21:46.683Z,101104.85
2022-10-17T21:24:21.094Z,101107.33
2022-10-17T21:26:53.681Z,101097.75
2022-10-17T21:29:25.626Z,101085.55
2022-10-17T21:31:55.580Z,101096.82
2022-10-17T21:34:25.717Z,101101.91
2022-10-17T21:36:55.569Z,101100.09
2022-10-17T21:39:25.503Z,101105.95
2022-10-17T21:41:55.965Z,101102.71
2022-10-17T21:44:27.786Z,101093.50
2022-10-17T21:46:57.741Z,101090.83
2022-10-17T21:49:27.700Z,101086.14
2022-10-17T21:51:58.334Z,101080.02
2022-10-17T21:54:27.999Z,101090.34
2022-10-17T21:56:58.284Z,101090.34
2022-10-17T21:59:28.259Z,101087.50
2022-10-17T22:01:58.137Z,101080.28
2022-10-17T22:04:28.063Z,101088.98
2022-10-17T22:06:57.848Z,101089.70
2022-10-17T22:09:28.288Z,101088.34
2022-10-17T22:11:58.252Z,101091.06
2022-10-17T22:14:29.165Z,101088.82
2022-10-17T22:16:59.064Z,101077.53
2022-10-17T22:19:28.853Z,101086.96
2022-10-17T22:21:58.646Z,101086.96
2022-10-17T22:24:28.465Z,101091.00
2022-10-17T22:26:58.613Z,101090.08
2022-10-17T22:29:28.393Z,101093.50
2022-10-17T22:31:58.179Z,101090.87
2022-10-17T22:34:28.130Z,101088.19
2022-10-17T22:36:58.277Z,101082.17
2022-10-17T22:39:28.060Z,101075.77
2022-10-17T22:41:57.832Z,101082.27
2022-10-17T22:44:27.617Z,101079.51
2022-10-17T22:46:57.352Z,101082.32
2022-10-17T22:49:27.150Z,101077.27
2022-10-17T22:51:56.921Z,101079.75
2022-10-17T22:54:26.768Z,101074.11
2022-10-17T22:56:56.455Z,101085.81
2022-10-17T22:59:26.238Z,101087.09
2022-10-17T23:01:56.092Z,101089.18
2022-10-17T23:04:25.944Z,101090.47
2022-10-17T23:06:55.732Z,101089.75
2022-10-17T23:11:55.491Z,101093.36
2022-10-17T23:14:25.357Z,101094.38
2022-10-17T23:16:55.148Z,101084.14
2022-10-17T23:19:24.693Z,101091.81
2022-10-17T23:21:54.514Z,101084.58
2022-10-17T23:24:24.132Z,101077.95
2022-10-17T23:26:53.974Z,101088.37
2022-10-17T23:29:24.671Z,101085.02
2022-10-17T23:31:57.176Z,101087.42
2022-10-17T23:34:27.039Z,101080.15
2022-10-17T23:36:57.579Z,101083.80
2022-10-17T23:39:27.541Z,101076.87
2022-10-17T23:41:57.318Z,101075.73
2022-10-17T23:44:27.112Z,101068.16
2022-10-17T23:46:56.998Z,101074.19
2022-10-17T23:49:27.964Z,101077.98
2022-10-17T23:51:58.127Z,101080.34
2022-10-17T23:54:28.208Z,101074.76
2022-10-17T23:56:58.096Z,101074.76
2022-10-17T23:59:27.951Z,101075.67
